createdAt,value
2023-04-09T00:04:58.476Z,4.43
2023-04-09T00:10:01.667Z,4.57
2023-04-09T00:15:04.425Z,4.70
2023-04-09T00:20:09.274Z,4.57
2023-04-09T00:25:11.888Z,4.97
2023-04-09T00:30:24.760Z,4.60
2023-04-09T00:35:28.640Z,4.60
2023-04-09T00:40:32.221Z,5.18
2023-04-09T00:45:45.047Z,4.55
2023-04-09T00:50:49.704Z,4.38
2023-04-09T00:55:53.380Z,4.28
2023-04-09T01:00:56.101Z,3.90
2023-04-09T01:06:05.568Z,4.63
2023-04-09T01:11:13.743Z,4.38
2023-04-09T01:16:17.569Z,5.35
2023-04-09T01:21:27.771Z,4.68
2023-04-09T01:26:39.232Z,4.38
2023-04-09T01:31:44.523Z,4.57
2023-04-09T01:36:50.135Z,4.72
2023-04-09T01:41:56.239Z,4.47
2023-04-09T01:47:01.283Z,4.43
2023-04-09T01:52:05.510Z,4.53
2023-04-09T01:57:07.987Z,4.60
2023-04-09T02:02:13.275Z,5.35
2023-04-09T02:07:19.854Z,4.82
2023-04-09T02:12:22.721Z,3.83
2023-04-09T02:17:36.707Z,4.03
2023-04-09T02:22:39.982Z,4.05
2023-04-09T02:27:42.689Z,4.53
2023-04-09T02:32:46.588Z,5.38
2023-04-09T02:37:49.113Z,4.97
2023-04-09T02:43:01.665Z,4.95
2023-04-09T02:48:06.721Z,5.30
2023-04-09T02:53:10.113Z,5.63
2023-04-09T02:58:14.087Z,5.95
2023-04-09T03:03:18.147Z,5.82
2023-04-09T03:13:23.938Z,5.38
2023-04-09T03:18:27.929Z,5.57
2023-04-09T03:23:35.129Z,6.53
2023-04-09T03:28:37.694Z,6.05
2023-04-09T03:33:42.186Z,5.93
2023-04-09T03:38:45.029Z,4.88
2023-04-09T03:43:48.503Z,5.10
2023-04-09T03:48:53.452Z,5.67
2023-04-09T03:53:56.902Z,6.10
2023-04-09T03:58:59.802Z,5.55
2023-04-09T04:04:06.173Z,5.85
2023-04-09T04:09:09.302Z,4.75
2023-04-09T04:14:12.705Z,6.65
2023-04-09T04:19:18.771Z,6.82
2023-04-09T04:24:21.793Z,5.93
2023-04-09T04:29:24.659Z,6.38
2023-04-09T04:34:29.417Z,6.43
2023-04-09T04:44:34.756Z,5.88
2023-04-09T04:49:48.666Z,6.20
2023-04-09T04:59:53.841Z,5.72
2023-04-09T05:05:02.494Z,6.35
2023-04-09T05:10:05.263Z,4.65
2023-04-09T05:15:08.885Z,6.07
2023-04-09T05:20:13.490Z,3.70
2023-04-09T05:25:17.114Z,6.15
2023-04-09T05:30:19.700Z,7.30
2023-04-09T05:35:24.052Z,6.75
2023-04-09T05:40:26.645Z,6.57
2023-04-09T05:45:30.078Z,6.90
2023-04-09T05:50:43.888Z,6.90
2023-04-09T05:55:54.879Z,6.75
2023-04-09T06:00:58.289Z,3.00
2023-04-09T06:06:02.242Z,6.15
2023-04-09T06:11:09.576Z,6.93
2023-04-09T06:16:12.102Z,6.90
2023-04-09T06:21:16.976Z,7.70
2023-04-09T06:26:19.695Z,3.22
2023-04-09T06:31:23.180Z,6.05
2023-04-09T06:36:28.311Z,6.10
2023-04-09T06:41:32.448Z,3.83
2023-04-09T06:46:35.359Z,3.63
2023-04-09T06:51:39.348Z,3.17
2023-04-09T06:56:42.119Z,5.90
2023-04-09T07:01:44.733Z,4.75
2023-04-09T07:06:48.697Z,5.68
2023-04-09T07:11:51.696Z,5.40
2023-04-09T07:16:55.260Z,5.18
2023-04-09T07:21:59.378Z,5.60
2023-04-09T07:27:04.460Z,5.30
2023-04-09T07:32:07.806Z,5.40
2023-04-09T07:37:12.230Z,5.55
2023-04-09T07:42:15.696Z,5.18
2023-04-09T07:52:22.793Z,6.40
2023-04-09T07:57:26.406Z,7.07
2023-04-09T08:17:38.266Z,7.38
2023-04-09T08:22:42.758Z,5.40
2023-04-09T08:27:45.562Z,6.47
2023-04-09T08:32:50.016Z,7.75
2023-04-09T08:37:54.425Z,8.20
2023-04-09T08:42:58.138Z,8.32
2023-04-09T09:53:39.543Z,7.80
2023-04-09T09:58:43.744Z,8.80
2023-04-09T10:03:47.463Z,8.73
2023-04-09T10:18:59.781Z,10.00
2023-04-09T10:24:06.013Z,9.77
2023-04-09T10:54:57.631Z,8.63
2023-04-09T11:00:00.440Z,8.07
2023-04-09T11:05:07.914Z,10.52
2023-04-09T11:10:11.986Z,9.13
2023-04-09T11:15:19.402Z,10.55
2023-04-09T11:20:25.073Z,11.05
2023-04-09T11:25:30.196Z,8.70
2023-04-09T11:30:34.489Z,10.02
2023-04-09T11:35:37.987Z,7.75
2023-04-09T11:40:48.728Z,9.80
2023-04-09T11:45:52.750Z,10.50
2023-04-09T11:50:55.767Z,9.73
2023-04-09T11:56:00.093Z,10.38
2023-04-09T12:11:12.982Z,8.23
2023-04-09T12:16:20.694Z,8.02
2023-04-09T12:21:26.159Z,8.70
2023-04-09T12:26:30.621Z,7.93
2023-04-09T12:31:39.287Z,8.65
2023-04-09T12:36:42.654Z,8.45
2023-04-09T13:12:05.248Z,7.13
2023-04-09T13:17:09.269Z,8.15
2023-04-09T13:27:16.793Z,8.10
2023-04-09T13:32:21.069Z,7.30
2023-04-09T13:37:24.548Z,8.75
2023-04-09T13:42:28.838Z,7.47
2023-04-09T13:47:31.867Z,8.38
2023-04-09T13:52:35.340Z,7.18
2023-04-09T13:57:49.232Z,7.38
2023-04-09T14:02:52.395Z,10.48
2023-04-09T14:07:54.972Z,8.90
2023-04-09T14:12:58.790Z,8.73
2023-04-09T14:33:09.886Z,5.38
2023-04-09T14:58:25.814Z,6.13
2023-04-09T15:03:28.452Z,4.63
2023-04-09T15:08:31.215Z,5.72
2023-04-09T15:13:35.190Z,5.88
2023-04-09T15:18:38.160Z,5.43
2023-04-09T15:23:41.238Z,5.23
2023-04-09T15:28:46.102Z,5.60
2023-04-09T15:43:57.943Z,4.88
2023-04-09T15:49:00.749Z,5.25
2023-04-09T15:54:04.402Z,4.88
2023-04-09T15:59:09.199Z,5.20
2023-04-09T16:04:11.760Z,5.63
2023-04-09T16:09:15.132Z,5.38
2023-04-09T16:14:19.053Z,3.83
2023-04-09T16:24:24.163Z,4.90
2023-04-09T16:29:28.742Z,5.03
2023-04-09T16:39:35.259Z,4.75
2023-04-09T16:44:39.054Z,2.65
2023-04-09T16:49:41.574Z,4.00
2023-04-09T16:54:44.411Z,5.00
2023-04-09T16:59:48.505Z,4.20
2023-04-09T17:04:51.401Z,4.70
2023-04-09T17:09:56.618Z,4.90
2023-04-09T17:15:00.725Z,4.82
2023-04-09T17:20:04.483Z,4.72
2023-04-09T17:25:07.456Z,4.38
2023-04-09T17:30:12.166Z,4.72
2023-04-09T17:35:14.882Z,4.38
2023-04-09T17:40:18.693Z,4.15
2023-04-09T17:45:22.817Z,5.20
2023-04-09T17:55:27.819Z,4.43
2023-04-09T18:00:31.645Z,4.00
2023-04-09T18:05:35.513Z,4.75
2023-04-09T18:10:38.205Z,4.35
2023-04-09T18:15:44.785Z,4.68
2023-04-09T18:20:49.745Z,4.47
2023-04-09T18:25:52.338Z,4.70
2023-04-09T18:30:56.257Z,4.55
2023-04-09T18:36:00.497Z,4.82
2023-04-09T18:41:03.641Z,4.90
2023-04-09T18:46:08.306Z,5.20
2023-04-09T18:51:11.769Z,5.60
2023-04-09T18:56:14.698Z,5.07
2023-04-09T19:01:19.876Z,5.35
2023-04-09T19:06:23.244Z,7.32
2023-04-09T19:11:26.872Z,3.42
2023-04-09T19:16:30.663Z,5.20
2023-04-09T19:21:35.848Z,4.63
2023-04-09T19:26:39.144Z,4.57
2023-04-09T19:31:43.118Z,3.87
2023-04-09T19:41:48.263Z,4.88
2023-04-09T19:46:53.026Z,4.10
2023-04-09T19:51:56.697Z,5.10
2023-04-09T19:57:00.621Z,3.78
2023-04-09T20:02:05.637Z,3.63
2023-04-09T20:07:08.900Z,4.10
2023-04-09T20:12:11.609Z,5.50
2023-04-09T20:17:17.153Z,5.30
2023-04-09T20:22:19.684Z,2.90
2023-04-09T20:27:22.583Z,5.35
2023-04-09T20:32:27.074Z,5.53
2023-04-09T20:37:29.948Z,4.57
2023-04-09T20:42:32.620Z,3.30
2023-04-09T20:47:37.514Z,5.13
2023-04-09T20:52:40.097Z,4.82
2023-04-09T20:57:43.812Z,6.90
2023-04-09T21:02:47.795Z,4.47
2023-04-09T21:07:51.416Z,3.83
2023-04-09T21:12:55.296Z,4.75
2023-04-09T21:18:00.379Z,5.97
2023-04-09T21:23:06.464Z,3.90
2023-04-09T21:28:09.619Z,5.70
2023-04-09T21:33:14.523Z,3.42
2023-04-09T21:38:17.797Z,3.47
2023-04-09T21:43:20.689Z,5.53
2023-04-09T21:48:26.368Z,3.63
2023-04-09T21:53:28.962Z,4.28
2023-04-09T21:58:32.080Z,3.08
2023-04-09T22:03:36.953Z,4.70
2023-04-09T22:08:52.779Z,6.05
2023-04-09T22:13:58.827Z,5.53
2023-04-09T22:19:04.255Z,4.32
2023-04-09T22:24:07.573Z,4.00
2023-04-09T22:29:10.143Z,5.15
2023-04-09T22:34:20.778Z,3.45
2023-04-09T22:39:25.679Z,4.30
2023-04-09T22:44:29.121Z,4.72
2023-04-09T22:49:32.907Z,4.57
2023-04-09T22:54:35.527Z,5.28
2023-04-09T22:59:40.545Z,4.10
2023-04-09T23:04:45.483Z,5.28
2023-04-09T23:14:51.140Z,3.65
2023-04-09T23:19:56.082Z,4.75
2023-04-09T23:24:59.394Z,4.30
2023-04-09T23:30:02.010Z,4.53
2023-04-09T23:35:06.624Z,3.00
2023-04-09T23:40:10.581Z,5.35
2023-04-09T23:45:15.020Z,6.00
2023-04-09T23:50:18.899Z,5.13
2023-04-09T23:55:27.960Z,6.75
